createdAt,value
2018-05-14T00:01:51.189Z,55.37
2018-05-14T00:04:18.628Z,55.63
2018-05-14T00:06:46.077Z,63.80
2018-05-14T00:09:13.516Z,59.97
2018-05-14T00:11:40.971Z,61.40
2018-05-14T00:14:09.180Z,62.60
2018-05-14T00:16:37.032Z,57.10
2018-05-14T00:19:05.238Z,63.27
2018-05-14T00:21:32.671Z,57.87
2018-05-14T00:24:00.124Z,63.47
2018-05-14T00:26:27.568Z,62.57
2018-05-14T00:28:55.015Z,60.30
2018-05-14T00:31:23.212Z,61.37
2018-05-14T00:33:50.655Z,59.00
2018-05-14T00:36:18.105Z,59.80
2018-05-14T00:38:46.300Z,67.40
2018-05-14T00:41:13.756Z,62.50
2018-05-14T00:43:41.192Z,67.90
2018-05-14T00:46:08.628Z,63.97
2018-05-14T00:48:37.576Z,67.37
2018-05-14T00:51:05.022Z,67.83
2018-05-14T00:53:32.468Z,61.03
2018-05-14T00:56:00.663Z,59.63
2018-05-14T00:58:28.150Z,68.60
2018-05-14T01:00:55.544Z,65.17
2018-05-14T01:03:22.997Z,67.83
2018-05-14T01:05:50.421Z,68.87
2018-05-14T01:08:18.636Z,65.53
2018-05-14T01:10:46.101Z,70.30
2018-05-14T01:13:14.287Z,72.23
2018-05-14T01:15:42.503Z,64.47
2018-05-14T01:18:09.940Z,73.07
2018-05-14T01:20:37.388Z,63.10
2018-05-14T01:23:05.603Z,75.07
2018-05-14T01:25:33.048Z,77.67
2018-05-14T01:28:01.162Z,71.90
2018-05-14T01:30:28.617Z,69.67
2018-05-14T01:32:56.066Z,73.10
2018-05-14T01:35:23.513Z,72.77
2018-05-14T01:37:50.975Z,71.63
2018-05-14T01:40:18.410Z,71.37
2018-05-14T01:42:45.854Z,82.97
2018-05-14T01:45:13.311Z,79.30
2018-05-14T01:47:40.744Z,69.93
2018-05-14T01:50:08.579Z,67.47
2018-05-14T01:52:36.021Z,80.63
2018-05-14T01:55:03.470Z,70.90
2018-05-14T01:57:31.664Z,75.60
2018-05-14T01:59:59.870Z,71.50
2018-05-14T02:02:27.335Z,68.50
2018-05-14T02:04:55.398Z,62.67
2018-05-14T02:07:23.620Z,69.50
2018-05-14T02:09:51.076Z,71.93
2018-05-14T02:12:18.508Z,72.47
2018-05-14T02:14:46.728Z,70.77
2018-05-14T02:17:14.165Z,67.10
2018-05-14T02:19:42.366Z,69.60
2018-05-14T02:22:09.823Z,75.63
2018-05-14T02:24:38.021Z,76.57
2018-05-14T02:27:05.454Z,80.40
2018-05-14T02:29:33.296Z,68.47
2018-05-14T02:32:00.741Z,71.10
2018-05-14T02:34:28.576Z,72.90
2018-05-14T02:36:56.032Z,69.27
2018-05-14T02:39:23.472Z,76.30
2018-05-14T02:41:50.924Z,69.37
2018-05-14T02:44:18.378Z,70.97
2018-05-14T02:46:45.833Z,71.10
2018-05-14T02:49:14.032Z,68.47
2018-05-14T02:51:41.480Z,70.60
2018-05-14T02:54:09.799Z,74.73
2018-05-14T02:56:37.217Z,64.40
2018-05-14T02:59:04.677Z,71.27
2018-05-14T03:01:32.112Z,70.63
2018-05-14T03:03:59.561Z,64.70
2018-05-14T03:06:27.015Z,70.37
2018-05-14T03:08:55.203Z,67.37
2018-05-14T03:11:22.654Z,70.77
2018-05-14T03:13:51.200Z,62.90
2018-05-14T03:16:19.045Z,66.77
2018-05-14T03:18:46.491Z,57.60
2018-05-14T03:21:14.226Z,59.83
2018-05-14T03:23:41.660Z,66.07
2018-05-14T03:26:09.100Z,68.57
2018-05-14T03:28:36.539Z,63.10
2018-05-14T03:31:03.985Z,63.13
2018-05-14T03:33:31.430Z,64.40
2018-05-14T03:35:58.888Z,68.23
2018-05-14T03:38:27.092Z,64.30
2018-05-14T03:40:54.529Z,59.43
2018-05-14T03:43:22.843Z,59.73
2018-05-14T03:45:50.221Z,71.70
2018-05-14T03:48:17.649Z,62.30
2018-05-14T03:50:45.867Z,59.20
2018-05-14T03:53:13.376Z,57.13
2018-05-14T03:55:40.820Z,63.10
2018-05-14T03:58:20.089Z,63.07
2018-05-14T04:04:05.956Z,60.93
2018-05-14T04:06:34.169Z,58.70
2018-05-14T04:09:01.618Z,61.50
2018-05-14T04:11:29.829Z,58.30
2018-05-14T04:13:58.039Z,62.13
2018-05-14T04:16:25.551Z,63.23
2018-05-14T04:18:52.961Z,60.03
2018-05-14T04:21:20.440Z,57.73
2018-05-14T04:23:47.868Z,56.57
2018-05-14T04:26:16.088Z,60.67
2018-05-14T04:28:43.928Z,54.40
2018-05-14T04:31:12.876Z,56.17
2018-05-14T04:33:40.330Z,57.77
2018-05-14T04:36:07.765Z,58.87
2018-05-14T04:38:35.204Z,62.77
2018-05-14T04:41:02.661Z,56.80
2018-05-14T04:43:30.088Z,64.70
2018-05-14T04:45:57.545Z,60.67
2018-05-14T04:48:25.392Z,56.20
2018-05-14T04:50:53.604Z,62.00
2018-05-14T04:53:21.041Z,63.57
2018-05-14T04:55:48.492Z,66.17
2018-05-14T04:58:15.939Z,63.60
2018-05-14T05:00:43.373Z,62.80
2018-05-14T05:03:10.891Z,58.17
2018-05-14T05:05:38.337Z,61.57
2018-05-14T05:08:05.797Z,59.77
2018-05-14T05:10:33.365Z,58.93
2018-05-14T05:13:01.474Z,63.00
2018-05-14T05:15:28.945Z,67.60
2018-05-14T05:17:56.398Z,56.77
2018-05-14T05:20:23.830Z,63.80
2018-05-14T05:22:51.310Z,62.03
2018-05-14T05:25:19.493Z,63.13
2018-05-14T05:27:47.708Z,68.03
2018-05-14T05:30:15.164Z,63.87
2018-05-14T05:32:42.991Z,63.70
2018-05-14T05:35:11.212Z,66.97
2018-05-14T05:37:38.761Z,60.10
2018-05-14T05:40:06.104Z,66.30
2018-05-14T05:42:33.560Z,61.67
2018-05-14T05:45:01.351Z,61.30
2018-05-14T05:47:29.561Z,65.83
2018-05-14T05:49:57.767Z,65.30
2018-05-14T05:52:25.647Z,65.80
2018-05-14T05:54:53.834Z,64.60
2018-05-14T05:57:21.322Z,57.10
2018-05-14T05:59:48.761Z,60.27
2018-05-14T06:02:16.216Z,58.97
2018-05-14T06:04:43.660Z,60.50
2018-05-14T06:07:11.104Z,61.77
2018-05-14T06:09:38.552Z,57.83
2018-05-14T06:12:06.763Z,59.47
2018-05-14T06:14:34.616Z,56.23
2018-05-14T06:17:02.832Z,57.47
2018-05-14T06:19:30.288Z,57.57
2018-05-14T06:21:57.732Z,56.47
2018-05-14T06:24:26.309Z,54.10
2018-05-14T06:26:53.967Z,58.37
2018-05-14T06:29:22.197Z,55.33
2018-05-14T06:31:49.645Z,60.20
2018-05-14T06:34:17.107Z,57.63
2018-05-14T06:36:44.606Z,55.67
2018-05-14T06:39:12.038Z,58.57
2018-05-14T06:41:39.484Z,57.27
2018-05-14T06:44:08.107Z,58.37
2018-05-14T06:46:36.294Z,56.97
2018-05-14T06:49:03.747Z,55.07
2018-05-14T06:51:31.193Z,55.43
2018-05-14T06:53:59.414Z,53.77
2018-05-14T06:56:26.872Z,56.77
2018-05-14T06:58:54.312Z,55.60
2018-05-14T07:01:21.773Z,52.37
2018-05-14T07:03:49.218Z,52.30
2018-05-14T07:06:16.658Z,48.50
2018-05-14T07:08:44.096Z,50.63
2018-05-14T07:11:12.319Z,46.90
2018-05-14T07:13:39.774Z,51.73
2018-05-14T07:16:07.242Z,49.63
2018-05-14T07:18:34.705Z,51.20
2018-05-14T07:21:03.284Z,52.97
2018-05-14T07:23:31.488Z,44.33
2018-05-14T07:25:58.943Z,43.40
2018-05-14T07:28:26.412Z,46.50
2018-05-14T07:30:53.856Z,43.70
2018-05-14T07:33:22.081Z,46.63
2018-05-14T07:35:49.929Z,43.80
2018-05-14T07:38:18.151Z,45.50
2018-05-14T07:40:46.352Z,43.43
2018-05-14T07:43:13.792Z,44.07
2018-05-14T07:45:41.252Z,47.97
2018-05-14T07:48:08.696Z,41.73
2018-05-14T07:50:36.917Z,44.33
2018-05-14T07:53:04.363Z,44.80
2018-05-14T07:55:31.836Z,45.73
2018-05-14T07:57:59.959Z,43.83
2018-05-14T08:00:27.920Z,43.93
2018-05-14T08:02:55.370Z,43.83
2018-05-14T08:05:22.822Z,46.97
2018-05-14T08:07:51.032Z,43.60
2018-05-14T08:10:18.471Z,44.27
2018-05-14T08:12:46.690Z,45.20
2018-05-14T08:15:14.130Z,45.47
2018-05-14T08:17:42.720Z,45.20
2018-05-14T08:20:10.178Z,43.37
2018-05-14T08:22:37.615Z,45.53
2018-05-14T08:25:05.824Z,45.17
2018-05-14T08:27:33.260Z,45.30
2018-05-14T08:30:00.701Z,45.10
2018-05-14T08:32:28.929Z,43.77
2018-05-14T08:34:56.369Z,43.47
2018-05-14T08:37:23.827Z,42.43
2018-05-14T08:39:51.296Z,45.67
2018-05-14T08:42:18.734Z,42.60
2018-05-14T08:44:46.178Z,42.67
2018-05-14T08:47:13.608Z,40.53
2018-05-14T08:49:41.078Z,41.53
2018-05-14T08:52:08.531Z,43.90
2018-05-14T08:54:36.072Z,41.90
2018-05-14T08:57:05.011Z,44.07
2018-05-14T08:59:32.456Z,39.13
2018-05-14T09:01:59.972Z,42.80
2018-05-14T09:04:27.659Z,43.00
2018-05-14T09:06:55.470Z,40.70
2018-05-14T09:09:22.854Z,43.80
2018-05-14T09:11:50.290Z,43.47
2018-05-14T09:14:18.501Z,43.10
2018-05-14T09:16:46.182Z,42.80
2018-05-14T09:19:13.620Z,41.43
2018-05-14T09:21:41.831Z,44.40
2018-05-14T09:24:09.275Z,40.77
2018-05-14T09:26:37.501Z,39.80
2018-05-14T09:29:04.932Z,41.33
2018-05-14T09:31:33.142Z,42.90
2018-05-14T09:34:00.591Z,41.00
2018-05-14T09:36:28.815Z,41.90
2018-05-14T09:38:56.251Z,45.10
2018-05-14T09:41:23.689Z,42.07
2018-05-14T09:43:51.132Z,46.53
2018-05-14T09:46:18.937Z,45.60
2018-05-14T09:48:46.372Z,42.63
2018-05-14T09:51:13.813Z,43.90
2018-05-14T09:53:41.685Z,41.90
2018-05-14T09:56:09.120Z,39.70
2018-05-14T09:58:36.960Z,42.87
2018-05-14T10:01:05.170Z,41.50
2018-05-14T10:03:33.015Z,39.10
2018-05-14T10:06:00.453Z,39.77
2018-05-14T10:08:27.900Z,45.17
2018-05-14T10:10:56.118Z,43.93
2018-05-14T10:13:23.582Z,44.10
2018-05-14T10:15:51.029Z,42.50
2018-05-14T10:18:19.224Z,42.40
2018-05-14T10:20:46.657Z,44.90
2018-05-14T10:23:14.108Z,42.03
2018-05-14T10:25:41.564Z,44.40
2018-05-14T10:28:09.008Z,44.27
2018-05-14T10:30:36.449Z,44.30
2018-05-14T10:33:05.383Z,42.60
2018-05-14T10:35:32.833Z,39.87
2018-05-14T10:38:00.713Z,43.03
2018-05-14T10:40:28.144Z,43.17
2018-05-14T10:42:55.588Z,43.20
2018-05-14T10:45:23.026Z,41.87
2018-05-14T10:47:51.219Z,43.23
2018-05-14T10:50:18.664Z,39.43
2018-05-14T10:52:46.129Z,43.23
2018-05-14T10:55:13.952Z,44.33
2018-05-14T10:57:41.400Z,45.17
2018-05-14T11:00:08.827Z,42.47
2018-05-14T11:02:37.037Z,42.63
2018-05-14T11:05:04.480Z,43.37
2018-05-14T11:07:32.695Z,46.00
2018-05-14T11:10:00.123Z,42.90
2018-05-14T11:12:28.342Z,41.00
2018-05-14T11:14:55.786Z,43.37
2018-05-14T11:17:23.996Z,43.40
2018-05-14T11:19:51.439Z,41.07
2018-05-14T11:22:19.640Z,41.27
2018-05-14T11:24:47.083Z,45.10
2018-05-14T11:27:14.908Z,42.03
2018-05-14T11:29:42.359Z,41.30
2018-05-14T11:32:09.792Z,41.33
2018-05-14T11:34:37.640Z,42.87
2018-05-14T11:37:05.073Z,40.17
2018-05-14T11:39:32.512Z,41.83
2018-05-14T11:41:59.954Z,39.20
2018-05-14T11:44:27.399Z,43.17
2018-05-14T11:46:54.840Z,43.17
2018-05-14T11:49:22.277Z,43.10
2018-05-14T11:51:50.495Z,46.60
2018-05-14T11:54:17.929Z,43.87
2018-05-14T11:56:46.255Z,45.10
2018-05-14T11:59:13.988Z,41.67
2018-05-14T12:01:42.188Z,42.80
2018-05-14T12:04:10.396Z,41.97
2018-05-14T12:06:37.823Z,43.13
2018-05-14T12:09:05.280Z,44.87
2018-05-14T12:11:32.735Z,45.63
2018-05-14T12:14:00.165Z,47.07
2018-05-14T12:16:27.608Z,42.83
2018-05-14T12:18:55.820Z,44.10
2018-05-14T12:21:23.272Z,44.47
2018-05-14T12:23:50.728Z,44.70
2018-05-14T12:26:18.169Z,44.93
2018-05-14T12:28:45.724Z,45.10
2018-05-14T12:31:13.163Z,44.50
2018-05-14T12:33:40.604Z,52.47
2018-05-14T12:36:08.814Z,48.97
2018-05-14T12:38:36.248Z,49.00
2018-05-14T12:41:04.464Z,48.97
2018-05-14T12:43:31.907Z,46.77
2018-05-14T12:46:00.758Z,47.20
2018-05-14T12:48:28.132Z,42.67
2018-05-14T12:50:55.579Z,49.97
2018-05-14T12:53:23.015Z,49.67
2018-05-14T12:55:51.220Z,52.10
2018-05-14T12:58:18.668Z,54.40
2018-05-14T13:00:46.917Z,55.90
2018-05-14T13:03:14.409Z,52.90
2018-05-14T13:05:41.832Z,50.17
2018-05-14T13:08:09.273Z,48.43
2018-05-14T13:10:36.720Z,51.30
2018-05-14T13:13:05.031Z,51.27
2018-05-14T13:15:33.172Z,47.20
2018-05-14T13:18:00.789Z,47.47
2018-05-14T13:20:28.257Z,49.90
2018-05-14T13:22:55.704Z,54.53
2018-05-14T13:25:23.908Z,56.67
2018-05-14T13:27:51.357Z,54.43
2018-05-14T13:30:19.212Z,51.37
2018-05-14T13:32:46.669Z,50.43
2018-05-14T13:35:14.904Z,53.00
2018-05-14T13:37:42.373Z,51.70
2018-05-14T13:40:09.800Z,50.70
2018-05-14T13:42:37.231Z,47.47
2018-05-14T13:45:04.686Z,50.43
2018-05-14T13:47:32.903Z,46.73
2018-05-14T13:50:00.355Z,43.07
2018-05-14T13:52:27.807Z,42.03
2018-05-14T13:54:55.248Z,38.40
2018-05-14T13:57:23.545Z,39.27
2018-05-14T13:59:50.916Z,39.87
2018-05-14T14:02:18.361Z,45.23
2018-05-14T14:04:46.573Z,49.60
2018-05-14T14:07:14.120Z,55.30
2018-05-14T14:09:41.961Z,47.43
2018-05-14T14:12:09.793Z,48.07
2018-05-14T14:14:37.236Z,46.83
2018-05-14T14:17:05.549Z,42.90
2018-05-14T14:19:32.912Z,43.43
2018-05-14T14:22:00.372Z,36.03
2018-05-14T14:24:28.653Z,36.40
2018-05-14T14:26:56.020Z,33.13
2018-05-14T14:29:23.866Z,32.00
2018-05-14T14:31:51.319Z,26.20
2018-05-14T14:34:18.761Z,18.10
2018-05-14T14:36:46.184Z,14.17
2018-05-14T14:39:13.620Z,12.10
2018-05-14T14:41:41.074Z,12.67
2018-05-14T14:44:08.533Z,11.83
2018-05-14T14:46:35.990Z,11.17
2018-05-14T14:49:03.449Z,11.00
2018-05-14T14:51:30.883Z,11.03
2018-05-14T14:53:58.322Z,11.77
2018-05-14T14:56:25.769Z,10.83
2018-05-14T14:58:53.204Z,10.20
2018-05-14T15:01:21.411Z,9.90
2018-05-14T15:03:48.844Z,8.87
2018-05-14T15:06:17.072Z,8.30
2018-05-14T15:08:45.113Z,9.27
2018-05-14T15:11:12.549Z,8.87
2018-05-14T15:13:39.996Z,8.80
2018-05-14T15:16:07.435Z,8.63
2018-05-14T15:18:35.655Z,9.10
2018-05-14T15:21:03.092Z,8.20
2018-05-14T15:23:31.292Z,7.33
2018-05-14T15:25:59.708Z,7.30
2018-05-14T15:28:27.150Z,7.23
2018-05-14T15:30:54.589Z,7.30
2018-05-14T15:33:22.416Z,6.90
2018-05-14T15:35:50.680Z,6.70
2018-05-14T15:38:18.108Z,7.10
2018-05-14T15:40:47.040Z,7.70
2018-05-14T15:43:15.252Z,7.03
2018-05-14T15:45:42.701Z,7.10
2018-05-14T15:48:10.550Z,6.93
2018-05-14T15:50:37.974Z,7.00
2018-05-14T15:53:06.772Z,7.20
2018-05-14T15:55:34.205Z,6.97
2018-05-14T15:58:02.994Z,6.70
2018-05-14T16:00:31.964Z,7.23
2018-05-14T16:02:59.418Z,6.30
2018-05-14T16:05:27.645Z,6.80
2018-05-14T16:07:55.129Z,5.43
2018-05-14T16:10:23.301Z,5.40
2018-05-14T16:12:51.500Z,6.80
2018-05-14T16:15:18.978Z,5.00
2018-05-14T16:17:46.407Z,5.03
2018-05-14T16:20:13.835Z,5.00
2018-05-14T16:22:41.267Z,4.53
2018-05-14T16:25:09.482Z,5.27
2018-05-14T16:27:38.040Z,4.47
2018-05-14T16:30:06.232Z,5.03
2018-05-14T16:32:34.085Z,4.00
2018-05-14T16:35:02.315Z,5.00
2018-05-14T16:40:09.204Z,3.90
2018-05-14T16:42:41.006Z,3.87
2018-05-14T16:45:13.169Z,3.43
2018-05-14T16:47:40.983Z,6.00
2018-05-14T16:50:08.412Z,5.17
2018-05-14T16:52:35.883Z,4.73
2018-05-14T16:55:03.318Z,4.53
2018-05-14T16:57:31.511Z,4.33
2018-05-14T16:59:59.707Z,4.63
2018-05-14T17:02:27.144Z,4.40
2018-05-14T17:04:54.660Z,4.27
2018-05-14T17:07:22.480Z,4.23
2018-05-14T17:09:49.936Z,4.30
2018-05-14T17:12:17.375Z,4.53
2018-05-14T17:14:44.797Z,4.30
2018-05-14T17:17:12.238Z,4.50
2018-05-14T17:19:40.453Z,3.90
2018-05-14T17:22:07.885Z,4.40
2018-05-14T17:24:35.307Z,4.80
2018-05-14T17:27:03.533Z,4.03
2018-05-14T17:29:32.221Z,4.67
2018-05-14T17:31:59.654Z,4.30
2018-05-14T17:34:27.123Z,4.93
2018-05-14T17:36:54.556Z,4.63
2018-05-14T17:39:23.001Z,4.87
2018-05-14T17:41:50.435Z,4.37
2018-05-14T17:44:18.643Z,4.80
2018-05-14T17:46:46.078Z,4.80
2018-05-14T17:49:13.903Z,4.07
2018-05-14T17:51:41.338Z,4.80
2018-05-14T17:54:09.571Z,4.87
2018-05-14T17:56:37.024Z,4.77
2018-05-14T17:59:05.223Z,4.63
2018-05-14T18:01:32.693Z,4.63
2018-05-14T18:04:00.887Z,4.47
2018-05-14T18:06:28.356Z,4.93
2018-05-14T18:08:56.553Z,4.53
2018-05-14T18:11:23.983Z,5.03
2018-05-14T18:13:51.427Z,4.33
2018-05-14T18:16:19.632Z,4.30
2018-05-14T18:18:47.821Z,5.47
2018-05-14T18:21:15.265Z,4.87
2018-05-14T18:23:46.562Z,4.53
2018-05-14T18:26:17.176Z,4.50
2018-05-14T18:28:48.817Z,6.43
2018-05-14T18:31:21.963Z,4.93
2018-05-14T18:33:50.156Z,4.60
2018-05-14T18:36:17.580Z,4.80
2018-05-14T18:38:45.775Z,5.40
2018-05-14T18:41:14.361Z,4.60
2018-05-14T18:43:41.810Z,4.60
2018-05-14T18:46:09.251Z,4.57
2018-05-14T18:48:37.408Z,5.60
2018-05-14T18:51:05.245Z,5.40
2018-05-14T18:53:33.460Z,5.37
2018-05-14T18:56:00.891Z,5.33
2018-05-14T18:58:28.680Z,6.23
2018-05-14T19:00:56.881Z,5.47
2018-05-14T19:03:24.316Z,5.53
2018-05-14T19:05:51.780Z,4.93
2018-05-14T19:08:19.207Z,6.20
2018-05-14T19:10:52.248Z,6.60
2018-05-14T19:13:19.678Z,5.03
2018-05-14T19:15:52.869Z,5.77
2018-05-14T19:18:20.300Z,6.37
2018-05-14T19:20:48.505Z,5.60
2018-05-14T19:23:22.328Z,7.17
2018-05-14T19:25:49.764Z,5.97
2018-05-14T19:28:23.512Z,5.60
2018-05-14T19:30:50.951Z,5.50
2018-05-14T19:33:24.722Z,6.10
2018-05-14T19:35:57.983Z,5.80
2018-05-14T19:38:25.361Z,7.30
2018-05-14T19:40:52.788Z,5.77
2018-05-14T19:43:20.623Z,6.00
2018-05-14T19:45:48.526Z,7.63
2018-05-14T19:48:16.001Z,6.40
2018-05-14T19:50:43.419Z,6.97
2018-05-14T19:53:10.861Z,6.83
2018-05-14T19:55:38.298Z,6.30
2018-05-14T19:58:06.140Z,7.13
2018-05-14T20:00:33.577Z,7.47
2018-05-14T20:03:01.006Z,7.60
2018-05-14T20:05:28.442Z,6.73
2018-05-14T20:07:55.876Z,7.33
2018-05-14T20:10:24.098Z,8.00
2018-05-14T20:12:51.545Z,6.43
2018-05-14T20:15:19.343Z,6.17
2018-05-14T20:17:46.793Z,7.10
2018-05-14T20:20:15.108Z,6.77
2018-05-14T20:22:42.452Z,8.80
2018-05-14T20:25:10.640Z,8.43
2018-05-14T20:27:38.096Z,8.30
2018-05-14T20:30:07.052Z,7.43
2018-05-14T20:32:34.882Z,8.13
2018-05-14T20:35:03.820Z,8.50
2018-05-14T20:37:31.722Z,7.97
2018-05-14T20:39:59.135Z,7.80
2018-05-14T20:42:27.928Z,8.50
2018-05-14T20:44:55.364Z,8.40
2018-05-14T20:47:22.831Z,8.57
2018-05-14T20:49:50.312Z,9.00
2018-05-14T20:52:17.687Z,7.10
2018-05-14T20:54:45.881Z,8.10
2018-05-14T20:57:14.093Z,8.87
2018-05-14T20:59:41.573Z,8.17
2018-05-14T21:02:08.978Z,16.00
2018-05-14T21:04:36.415Z,8.13
2018-05-14T21:07:04.248Z,7.80
2018-05-14T21:09:32.457Z,8.53
2018-05-14T21:11:59.875Z,8.13
2018-05-14T21:14:27.332Z,8.20
2018-05-14T21:16:55.533Z,7.67
2018-05-14T21:19:23.353Z,7.90
2018-05-14T21:21:51.931Z,8.67
2018-05-14T21:24:19.372Z,7.87
2018-05-14T21:26:47.576Z,8.03
2018-05-14T21:29:15.026Z,8.50
2018-05-14T21:31:42.474Z,8.20
2018-05-14T21:34:09.920Z,7.97
2018-05-14T21:36:37.348Z,8.27
2018-05-14T21:39:05.650Z,8.23
2018-05-14T21:41:33.848Z,9.03
2018-05-14T21:44:01.304Z,9.20
2018-05-14T21:46:29.149Z,8.73
2018-05-14T21:48:57.365Z,8.13
2018-05-14T21:51:24.804Z,9.00
2018-05-14T21:53:53.760Z,10.03
2018-05-14T21:56:21.198Z,9.57
2018-05-14T21:58:48.637Z,10.00
2018-05-14T22:01:16.844Z,8.90
2018-05-14T22:03:44.277Z,8.10
2018-05-14T22:06:12.514Z,8.73
2018-05-14T22:08:39.952Z,8.90
2018-05-14T22:11:08.162Z,11.00
2018-05-14T22:13:36.369Z,10.17
2018-05-14T22:16:03.808Z,9.70
2018-05-14T22:18:31.244Z,9.03
2018-05-14T22:20:58.690Z,9.70
2018-05-14T22:23:26.150Z,8.80
2018-05-14T22:25:53.582Z,9.20
2018-05-14T22:28:22.372Z,8.73
2018-05-14T22:30:49.828Z,8.53
2018-05-14T22:33:17.239Z,8.63
2018-05-14T22:35:44.684Z,9.47
2018-05-14T22:38:12.119Z,8.43
2018-05-14T22:40:39.577Z,8.50
2018-05-14T22:43:07.032Z,7.93
2018-05-14T22:45:35.228Z,9.30
2018-05-14T22:48:02.674Z,9.03
2018-05-14T22:50:30.101Z,8.00
2018-05-14T22:52:57.544Z,8.50
2018-05-14T22:55:25.740Z,9.00
2018-05-14T22:57:53.937Z,8.30
2018-05-14T23:00:24.268Z,8.47
2018-05-14T23:02:52.485Z,7.80
2018-05-14T23:05:19.928Z,8.50
2018-05-14T23:07:47.360Z,8.67
2018-05-14T23:10:14.804Z,8.40
2018-05-14T23:12:43.028Z,9.30
2018-05-14T23:15:10.847Z,8.20
2018-05-14T23:17:38.294Z,8.37
2018-05-14T23:20:05.726Z,8.20
2018-05-14T23:22:41.123Z,7.90
2018-05-14T23:25:08.957Z,8.70
2018-05-14T23:27:36.402Z,7.70
2018-05-14T23:30:03.829Z,8.73
2018-05-14T23:32:31.278Z,8.67
2018-05-14T23:34:59.475Z,8.90
2018-05-14T23:37:26.910Z,7.40
2018-05-14T23:39:54.352Z,7.40
2018-05-14T23:42:21.771Z,7.90
2018-05-14T23:44:49.227Z,8.23
2018-05-14T23:47:17.443Z,7.73
2018-05-14T23:49:44.860Z,7.40
2018-05-14T23:52:12.705Z,7.20
2018-05-14T23:54:40.136Z,7.27
2018-05-14T23:57:08.340Z,6.80
2018-05-14T23:59:35.772Z,8.43
